sensor_id;sensor_type;location;lat;lon;timestamp;P1;durP1;ratioP1;P2;durP2;ratioP2
79130;SDS011;70394;45.194;9.142;2023-06-26T00:02:23;10.57;;;9.05;;
79130;SDS011;70394;45.194;9.142;2023-06-26T00:04:49;11.25;;;9.10;;
79130;SDS011;70394;45.194;9.142;2023-06-26T00:07:18;10.57;;;8.82;;
79130;SDS011;70394;45.194;9.142;2023-06-26T00:09:44;10.32;;;9.20;;
79130;SDS011;70394;45.194;9.142;2023-06-26T00:12:10;10.35;;;8.05;;
79130;SDS011;70394;45.194;9.142;2023-06-26T00:14:35;10.27;;;8.25;;
79130;SDS011;70394;45.194;9.142;2023-06-26T00:17:00;11.30;;;8.90;;
79130;SDS011;70394;45.194;9.142;2023-06-26T00:19:26;8.98;;;8.02;;
79130;SDS011;70394;45.194;9.142;2023-06-26T00:21:51;9.98;;;8.13;;
79130;SDS011;70394;45.194;9.142;2023-06-26T00:24:17;9.57;;;8.35;;
79130;SDS011;70394;45.194;9.142;2023-06-26T00:26:43;9.40;;;8.00;;
79130;SDS011;70394;45.194;9.142;2023-06-26T00:29:10;9.15;;;8.20;;
79130;SDS011;70394;45.194;9.142;2023-06-26T00:31:35;8.82;;;7.78;;
79130;SDS011;70394;45.194;9.142;2023-06-26T00:34:01;9.63;;;7.85;;
79130;SDS011;70394;45.194;9.142;2023-06-26T00:36:27;9.07;;;7.70;;
79130;SDS011;70394;45.194;9.142;2023-06-26T00:38:52;9.57;;;7.60;;
79130;SDS011;70394;45.194;9.142;2023-06-26T00:41:18;9.32;;;7.75;;
79130;SDS011;70394;45.194;9.142;2023-06-26T00:43:44;8.95;;;7.38;;
79130;SDS011;70394;45.194;9.142;2023-06-26T00:46:10;8.30;;;7.10;;
79130;SDS011;70394;45.194;9.142;2023-06-26T00:48:37;8.65;;;7.00;;
79130;SDS011;70394;45.194;9.142;2023-06-26T00:51:04;8.98;;;7.07;;
79130;SDS011;70394;45.194;9.142;2023-06-26T00:53:30;8.07;;;6.90;;
79130;SDS011;70394;45.194;9.142;2023-06-26T00:55:56;8.70;;;6.68;;
79130;SDS011;70394;45.194;9.142;2023-06-26T00:58:22;7.55;;;6.47;;
79130;SDS011;70394;45.194;9.142;2023-06-26T01:00:49;6.88;;;5.97;;
79130;SDS011;70394;45.194;9.142;2023-06-26T01:03:14;7.60;;;6.38;;
79130;SDS011;70394;45.194;9.142;2023-06-26T01:05:40;7.60;;;6.80;;
79130;SDS011;70394;45.194;9.142;2023-06-26T01:08:06;6.95;;;5.97;;
79130;SDS011;70394;45.194;9.142;2023-06-26T01:10:33;7.30;;;6.00;;
79130;SDS011;70394;45.194;9.142;2023-06-26T01:12:58;8.88;;;6.50;;
79130;SDS011;70394;45.194;9.142;2023-06-26T01:15:23;6.93;;;5.93;;
79130;SDS011;70394;45.194;9.142;2023-06-26T01:17:49;7.38;;;6.18;;
79130;SDS011;70394;45.194;9.142;2023-06-26T01:20:16;6.72;;;5.50;;
79130;SDS011;70394;45.194;9.142;2023-06-26T01:30:58;6.88;;;5.65;;
79130;SDS011;70394;45.194;9.142;2023-06-26T01:33:24;6.68;;;5.05;;
79130;SDS011;70394;45.194;9.142;2023-06-26T01:35:49;7.28;;;6.05;;
79130;SDS011;70394;45.194;9.142;2023-06-26T01:38:16;6.32;;;5.03;;
79130;SDS011;70394;45.194;9.142;2023-06-26T01:40:43;6.97;;;5.97;;
79130;SDS011;70394;45.194;9.142;2023-06-26T01:43:11;6.50;;;5.30;;
79130;SDS011;70394;45.194;9.142;2023-06-26T01:45:43;6.35;;;4.90;;
79130;SDS011;70394;45.194;9.142;2023-06-26T01:48:13;7.80;;;5.53;;
79130;SDS011;70394;45.194;9.142;2023-06-26T01:50:42;6.45;;;5.15;;
79130;SDS011;70394;45.194;9.142;2023-06-26T01:53:14;6.80;;;5.20;;
79130;SDS011;70394;45.194;9.142;2023-06-26T01:58:17;6.07;;;4.63;;
79130;SDS011;70394;45.194;9.142;2023-06-26T02:00:47;8.13;;;5.32;;
79130;SDS011;70394;45.194;9.142;2023-06-26T02:03:13;6.80;;;5.20;;
79130;SDS011;70394;45.194;9.142;2023-06-26T02:05:38;6.25;;;4.95;;
79130;SDS011;70394;45.194;9.142;2023-06-26T02:08:04;6.68;;;4.90;;
79130;SDS011;70394;45.194;9.142;2023-06-26T02:10:30;7.50;;;4.63;;
79130;SDS011;70394;45.194;9.142;2023-06-26T02:12:55;7.18;;;5.13;;
79130;SDS011;70394;45.194;9.142;2023-06-26T02:15:21;6.32;;;5.22;;
79130;SDS011;70394;45.194;9.142;2023-06-26T02:17:46;6.47;;;5.20;;
79130;SDS011;70394;45.194;9.142;2023-06-26T02:20:13;6.18;;;4.63;;
79130;SDS011;70394;45.194;9.142;2023-06-26T02:22:39;6.60;;;4.85;;
79130;SDS011;70394;45.194;9.142;2023-06-26T02:25:05;7.05;;;4.70;;
79130;SDS011;70394;45.194;9.142;2023-06-26T02:27:30;6.20;;;4.47;;
79130;SDS011;70394;45.194;9.142;2023-06-26T02:29:56;6.10;;;4.55;;
79130;SDS011;70394;45.194;9.142;2023-06-26T02:32:21;7.28;;;4.53;;
79130;SDS011;70394;45.194;9.142;2023-06-26T02:34:46;6.40;;;4.55;;
79130;SDS011;70394;45.194;9.142;2023-06-26T02:37:12;6.20;;;4.70;;
79130;SDS011;70394;45.194;9.142;2023-06-26T02:39:37;6.18;;;4.32;;
79130;SDS011;70394;45.194;9.142;2023-06-26T02:42:03;6.75;;;5.03;;
79130;SDS011;70394;45.194;9.142;2023-06-26T02:44:28;6.68;;;4.60;;
79130;SDS011;70394;45.194;9.142;2023-06-26T02:46:54;6.90;;;4.63;;
79130;SDS011;70394;45.194;9.142;2023-06-26T02:49:19;7.28;;;4.85;;
79130;SDS011;70394;45.194;9.142;2023-06-26T02:51:44;5.88;;;4.70;;
79130;SDS011;70394;45.194;9.142;2023-06-26T02:54:10;5.88;;;4.55;;
79130;SDS011;70394;45.194;9.142;2023-06-26T02:56:35;5.85;;;4.63;;
79130;SDS011;70394;45.194;9.142;2023-06-26T02:59:00;6.53;;;4.45;;
79130;SDS011;70394;45.194;9.142;2023-06-26T03:01:26;6.18;;;4.50;;
79130;SDS011;70394;45.194;9.142;2023-06-26T03:03:51;7.03;;;4.35;;
79130;SDS011;70394;45.194;9.142;2023-06-26T03:06:17;6.10;;;4.30;;
79130;SDS011;70394;45.194;9.142;2023-06-26T03:08:43;6.53;;;4.80;;
79130;SDS011;70394;45.194;9.142;2023-06-26T03:11:08;5.60;;;4.18;;
79130;SDS011;70394;45.194;9.142;2023-06-26T03:13:34;6.30;;;4.72;;
79130;SDS011;70394;45.194;9.142;2023-06-26T03:16:01;7.03;;;4.30;;
79130;SDS011;70394;45.194;9.142;2023-06-26T03:18:28;6.05;;;4.30;;
79130;SDS011;70394;45.194;9.142;2023-06-26T03:20:55;6.28;;;4.63;;
79130;SDS011;70394;45.194;9.142;2023-06-26T03:23:22;6.95;;;4.45;;
79130;SDS011;70394;45.194;9.142;2023-06-26T03:25:48;6.47;;;4.72;;
79130;SDS011;70394;45.194;9.142;2023-06-26T03:28:13;6.30;;;4.40;;
79130;SDS011;70394;45.194;9.142;2023-06-26T03:30:39;6.25;;;4.47;;
79130;SDS011;70394;45.194;9.142;2023-06-26T03:33:04;6.47;;;4.75;;
79130;SDS011;70394;45.194;9.142;2023-06-26T03:35:30;7.60;;;5.00;;
79130;SDS011;70394;45.194;9.142;2023-06-26T03:37:55;5.80;;;4.60;;
79130;SDS011;70394;45.194;9.142;2023-06-26T03:40:21;6.03;;;4.53;;
79130;SDS011;70394;45.194;9.142;2023-06-26T03:42:46;6.18;;;4.38;;
79130;SDS011;70394;45.194;9.142;2023-06-26T03:45:11;7.90;;;5.22;;
79130;SDS011;70394;45.194;9.142;2023-06-26T03:47:37;7.40;;;5.10;;
79130;SDS011;70394;45.194;9.142;2023-06-26T03:50:02;7.63;;;4.72;;
79130;SDS011;70394;45.194;9.142;2023-06-26T03:52:28;8.20;;;5.28;;
79130;SDS011;70394;45.194;9.142;2023-06-26T03:54:56;6.63;;;4.93;;
79130;SDS011;70394;45.194;9.142;2023-06-26T03:57:22;7.50;;;5.50;;
79130;SDS011;70394;45.194;9.142;2023-06-26T03:59:47;8.18;;;6.20;;
79130;SDS011;70394;45.194;9.142;2023-06-26T04:02:13;7.53;;;5.22;;
79130;SDS011;70394;45.194;9.142;2023-06-26T04:04:38;7.13;;;5.10;;
79130;SDS011;70394;45.194;9.142;2023-06-26T04:07:04;8.90;;;6.13;;
79130;SDS011;70394;45.194;9.142;2023-06-26T04:09:29;5.97;;;4.32;;
79130;SDS011;70394;45.194;9.142;2023-06-26T04:11:55;6.22;;;5.20;;
79130;SDS011;70394;45.194;9.142;2023-06-26T04:14:20;6.85;;;4.82;;
79130;SDS011;70394;45.194;9.142;2023-06-26T04:16:45;9.00;;;5.55;;
79130;SDS011;70394;45.194;9.142;2023-06-26T04:19:11;8.40;;;5.90;;
79130;SDS011;70394;45.194;9.142;2023-06-26T04:21:36;7.55;;;4.60;;
79130;SDS011;70394;45.194;9.142;2023-06-26T04:24:02;7.95;;;5.72;;
79130;SDS011;70394;45.194;9.142;2023-06-26T04:26:27;9.65;;;5.80;;
79130;SDS011;70394;45.194;9.142;2023-06-26T04:28:53;6.32;;;5.03;;
79130;SDS011;70394;45.194;9.142;2023-06-26T04:31:19;14.13;;;9.50;;
79130;SDS011;70394;45.194;9.142;2023-06-26T04:33:45;15.82;;;9.65;;
79130;SDS011;70394;45.194;9.142;2023-06-26T04:36:15;12.15;;;9.10;;
79130;SDS011;70394;45.194;9.142;2023-06-26T04:38:41;12.70;;;9.73;;
79130;SDS011;70394;45.194;9.142;2023-06-26T04:41:06;14.57;;;10.35;;
79130;SDS011;70394;45.194;9.142;2023-06-26T04:43:32;15.82;;;9.38;;
79130;SDS011;70394;45.194;9.142;2023-06-26T04:45:57;12.85;;;9.90;;
79130;SDS011;70394;45.194;9.142;2023-06-26T04:48:22;12.55;;;8.95;;
79130;SDS011;70394;45.194;9.142;2023-06-26T04:50:48;21.27;;;9.55;;
79130;SDS011;70394;45.194;9.142;2023-06-26T04:53:19;15.05;;;11.13;;
79130;SDS011;70394;45.194;9.142;2023-06-26T04:55:45;13.05;;;9.35;;
79130;SDS011;70394;45.194;9.142;2023-06-26T04:58:11;14.70;;;9.55;;
79130;SDS011;70394;45.194;9.142;2023-06-26T05:00:36;16.27;;;10.23;;
79130;SDS011;70394;45.194;9.142;2023-06-26T05:03:02;17.52;;;9.95;;
79130;SDS011;70394;45.194;9.142;2023-06-26T05:05:27;14.10;;;10.00;;
79130;SDS011;70394;45.194;9.142;2023-06-26T05:07:53;14.60;;;9.88;;
79130;SDS011;70394;45.194;9.142;2023-06-26T05:10:20;12.82;;;9.40;;
79130;SDS011;70394;45.194;9.142;2023-06-26T05:12:45;18.98;;;11.07;;
79130;SDS011;70394;45.194;9.142;2023-06-26T05:15:11;15.20;;;10.50;;
79130;SDS011;70394;45.194;9.142;2023-06-26T05:17:36;12.98;;;9.48;;
79130;SDS011;70394;45.194;9.142;2023-06-26T05:20:02;16.20;;;10.55;;
79130;SDS011;70394;45.194;9.142;2023-06-26T05:22:28;14.07;;;10.05;;
79130;SDS011;70394;45.194;9.142;2023-06-26T05:24:55;15.82;;;11.13;;
79130;SDS011;70394;45.194;9.142;2023-06-26T05:27:23;17.52;;;11.95;;
79130;SDS011;70394;45.194;9.142;2023-06-26T05:29:49;18.40;;;11.18;;
79130;SDS011;70394;45.194;9.142;2023-06-26T05:32:15;15.43;;;10.55;;
79130;SDS011;70394;45.194;9.142;2023-06-26T05:34:47;15.40;;;10.30;;
79130;SDS011;70394;45.194;9.142;2023-06-26T05:37:18;18.52;;;10.23;;
79130;SDS011;70394;45.194;9.142;2023-06-26T05:39:46;16.73;;;11.80;;
79130;SDS011;70394;45.194;9.142;2023-06-26T05:42:12;20.58;;;12.35;;
79130;SDS011;70394;45.194;9.142;2023-06-26T05:44:38;15.98;;;12.02;;
79130;SDS011;70394;45.194;9.142;2023-06-26T05:47:03;15.07;;;10.63;;
79130;SDS011;70394;45.194;9.142;2023-06-26T05:49:29;14.05;;;10.15;;
79130;SDS011;70394;45.194;9.142;2023-06-26T05:51:54;14.20;;;10.00;;
79130;SDS011;70394;45.194;9.142;2023-06-26T05:54:20;14.80;;;10.50;;
79130;SDS011;70394;45.194;9.142;2023-06-26T05:56:46;15.15;;;9.38;;
79130;SDS011;70394;45.194;9.142;2023-06-26T05:59:13;13.20;;;9.18;;
79130;SDS011;70394;45.194;9.142;2023-06-26T06:01:40;11.90;;;9.27;;
79130;SDS011;70394;45.194;9.142;2023-06-26T06:04:05;14.90;;;8.98;;
79130;SDS011;70394;45.194;9.142;2023-06-26T06:06:31;14.38;;;9.63;;
79130;SDS011;70394;45.194;9.142;2023-06-26T06:08:56;12.82;;;8.68;;
79130;SDS011;70394;45.194;9.142;2023-06-26T06:11:22;11.70;;;8.82;;
79130;SDS011;70394;45.194;9.142;2023-06-26T06:13:47;13.05;;;9.32;;
79130;SDS011;70394;45.194;9.142;2023-06-26T06:16:13;13.45;;;9.57;;
79130;SDS011;70394;45.194;9.142;2023-06-26T06:18:38;14.45;;;9.23;;
79130;SDS011;70394;45.194;9.142;2023-06-26T06:21:04;13.48;;;8.70;;
79130;SDS011;70394;45.194;9.142;2023-06-26T06:23:29;14.02;;;9.55;;
79130;SDS011;70394;45.194;9.142;2023-06-26T06:25:54;13.05;;;8.15;;
79130;SDS011;70394;45.194;9.142;2023-06-26T06:28:20;12.98;;;9.60;;
79130;SDS011;70394;45.194;9.142;2023-06-26T06:30:45;15.10;;;10.57;;
79130;SDS011;70394;45.194;9.142;2023-06-26T06:33:12;15.43;;;9.45;;
79130;SDS011;70394;45.194;9.142;2023-06-26T06:35:38;13.98;;;9.55;;
79130;SDS011;70394;45.194;9.142;2023-06-26T06:38:03;13.68;;;10.02;;
79130;SDS011;70394;45.194;9.142;2023-06-26T06:40:29;18.05;;;10.90;;
79130;SDS011;70394;45.194;9.142;2023-06-26T06:42:54;14.18;;;9.98;;
79130;SDS011;70394;45.194;9.142;2023-06-26T06:45:20;14.18;;;8.73;;
79130;SDS011;70394;45.194;9.142;2023-06-26T06:47:45;15.10;;;9.00;;
79130;SDS011;70394;45.194;9.142;2023-06-26T06:50:10;16.02;;;9.10;;
79130;SDS011;70394;45.194;9.142;2023-06-26T06:52:39;20.88;;;10.82;;
79130;SDS011;70394;45.194;9.142;2023-06-26T06:55:06;15.95;;;9.00;;
79130;SDS011;70394;45.194;9.142;2023-06-26T06:57:36;16.77;;;10.05;;
79130;SDS011;70394;45.194;9.142;2023-06-26T07:00:04;14.10;;;10.00;;
79130;SDS011;70394;45.194;9.142;2023-06-26T07:02:33;16.20;;;10.68;;
79130;SDS011;70394;45.194;9.142;2023-06-26T07:04:59;15.02;;;10.50;;
79130;SDS011;70394;45.194;9.142;2023-06-26T07:07:27;17.15;;;9.85;;
79130;SDS011;70394;45.194;9.142;2023-06-26T07:09:53;13.40;;;8.77;;
79130;SDS011;70394;45.194;9.142;2023-06-26T07:12:19;13.82;;;9.43;;
79130;SDS011;70394;45.194;9.142;2023-06-26T07:14:44;14.77;;;9.68;;
79130;SDS011;70394;45.194;9.142;2023-06-26T07:17:09;17.70;;;10.02;;
79130;SDS011;70394;45.194;9.142;2023-06-26T07:19:35;13.32;;;8.40;;
79130;SDS011;70394;45.194;9.142;2023-06-26T07:22:00;14.95;;;7.85;;
79130;SDS011;70394;45.194;9.142;2023-06-26T07:24:25;12.35;;;6.68;;
79130;SDS011;70394;45.194;9.142;2023-06-26T07:26:51;10.00;;;7.38;;
79130;SDS011;70394;45.194;9.142;2023-06-26T07:29:16;13.02;;;6.95;;
79130;SDS011;70394;45.194;9.142;2023-06-26T07:31:41;14.75;;;9.50;;
79130;SDS011;70394;45.194;9.142;2023-06-26T07:34:07;10.13;;;7.45;;
79130;SDS011;70394;45.194;9.142;2023-06-26T07:36:32;13.10;;;6.97;;
79130;SDS011;70394;45.194;9.142;2023-06-26T07:38:57;11.07;;;6.63;;
79130;SDS011;70394;45.194;9.142;2023-06-26T07:41:23;11.18;;;7.47;;
79130;SDS011;70394;45.194;9.142;2023-06-26T07:43:49;9.63;;;6.03;;
79130;SDS011;70394;45.194;9.142;2023-06-26T07:46:15;14.10;;;7.95;;
79130;SDS011;70394;45.194;9.142;2023-06-26T07:48:40;9.77;;;7.18;;
79130;SDS011;70394;45.194;9.142;2023-06-26T07:51:05;10.93;;;7.85;;
79130;SDS011;70394;45.194;9.142;2023-06-26T07:53:31;12.05;;;7.35;;
79130;SDS011;70394;45.194;9.142;2023-06-26T07:55:56;8.02;;;5.93;;
79130;SDS011;70394;45.194;9.142;2023-06-26T07:58:21;10.85;;;6.65;;
79130;SDS011;70394;45.194;9.142;2023-06-26T08:00:47;7.15;;;5.47;;
79130;SDS011;70394;45.194;9.142;2023-06-26T08:03:12;13.77;;;7.65;;
79130;SDS011;70394;45.194;9.142;2023-06-26T08:05:37;9.77;;;6.68;;
79130;SDS011;70394;45.194;9.142;2023-06-26T08:08:03;9.65;;;6.25;;
79130;SDS011;70394;45.194;9.142;2023-06-26T08:10:28;10.25;;;6.60;;
79130;SDS011;70394;45.194;9.142;2023-06-26T08:12:55;8.50;;;5.75;;
79130;SDS011;70394;45.194;9.142;2023-06-26T08:15:21;9.90;;;6.15;;
79130;SDS011;70394;45.194;9.142;2023-06-26T08:17:46;8.95;;;5.45;;
79130;SDS011;70394;45.194;9.142;2023-06-26T08:20:12;6.93;;;5.53;;
79130;SDS011;70394;45.194;9.142;2023-06-26T08:22:37;10.40;;;5.95;;
79130;SDS011;70394;45.194;9.142;2023-06-26T08:25:03;9.80;;;6.43;;
79130;SDS011;70394;45.194;9.142;2023-06-26T08:27:30;7.40;;;5.05;;
79130;SDS011;70394;45.194;9.142;2023-06-26T08:29:56;6.93;;;5.35;;
79130;SDS011;70394;45.194;9.142;2023-06-26T08:32:21;9.00;;;5.18;;
79130;SDS011;70394;45.194;9.142;2023-06-26T08:34:46;9.10;;;5.70;;
79130;SDS011;70394;45.194;9.142;2023-06-26T08:37:12;8.82;;;6.07;;
79130;SDS011;70394;45.194;9.142;2023-06-26T08:39:37;7.75;;;5.78;;
79130;SDS011;70394;45.194;9.142;2023-06-26T08:42:02;8.13;;;5.60;;
79130;SDS011;70394;45.194;9.142;2023-06-26T08:44:28;8.60;;;5.70;;
79130;SDS011;70394;45.194;9.142;2023-06-26T08:46:54;9.38;;;6.05;;
79130;SDS011;70394;45.194;9.142;2023-06-26T08:49:21;8.57;;;5.50;;
79130;SDS011;70394;45.194;9.142;2023-06-26T08:52:02;7.18;;;5.13;;
79130;SDS011;70394;45.194;9.142;2023-06-26T08:54:34;9.25;;;5.85;;
79130;SDS011;70394;45.194;9.142;2023-06-26T08:57:05;7.85;;;5.70;;
79130;SDS011;70394;45.194;9.142;2023-06-26T08:59:32;8.27;;;5.70;;
79130;SDS011;70394;45.194;9.142;2023-06-26T09:01:57;12.80;;;8.40;;
79130;SDS011;70394;45.194;9.142;2023-06-26T09:04:23;10.57;;;7.03;;
79130;SDS011;70394;45.194;9.142;2023-06-26T09:06:49;9.63;;;6.53;;
79130;SDS011;70394;45.194;9.142;2023-06-26T09:09:14;11.32;;;7.35;;
79130;SDS011;70394;45.194;9.142;2023-06-26T09:11:39;11.20;;;7.72;;
79130;SDS011;70394;45.194;9.142;2023-06-26T09:14:05;9.00;;;6.45;;
79130;SDS011;70394;45.194;9.142;2023-06-26T09:16:39;8.75;;;5.50;;
79130;SDS011;70394;45.194;9.142;2023-06-26T09:19:10;8.02;;;6.00;;
79130;SDS011;70394;45.194;9.142;2023-06-26T09:21:37;8.18;;;6.18;;
79130;SDS011;70394;45.194;9.142;2023-06-26T09:24:04;7.85;;;5.85;;
79130;SDS011;70394;45.194;9.142;2023-06-26T09:26:32;6.88;;;5.20;;
79130;SDS011;70394;45.194;9.142;2023-06-26T09:28:57;7.32;;;5.47;;
79130;SDS011;70394;45.194;9.142;2023-06-26T09:31:23;9.57;;;5.53;;
79130;SDS011;70394;45.194;9.142;2023-06-26T09:33:49;10.23;;;6.15;;
79130;SDS011;70394;45.194;9.142;2023-06-26T09:36:22;11.82;;;5.85;;
79130;SDS011;70394;45.194;9.142;2023-06-26T09:38:49;8.48;;;5.82;;
79130;SDS011;70394;45.194;9.142;2023-06-26T09:41:16;8.50;;;5.97;;
79130;SDS011;70394;45.194;9.142;2023-06-26T09:43:49;8.38;;;6.18;;
79130;SDS011;70394;45.194;9.142;2023-06-26T09:46:28;10.45;;;5.90;;
79130;SDS011;70394;45.194;9.142;2023-06-26T09:51:48;9.30;;;6.40;;
79130;SDS011;70394;45.194;9.142;2023-06-26T09:54:16;9.65;;;5.88;;
79130;SDS011;70394;45.194;9.142;2023-06-26T09:56:42;11.85;;;6.47;;
79130;SDS011;70394;45.194;9.142;2023-06-26T09:59:08;9.77;;;5.95;;
79130;SDS011;70394;45.194;9.142;2023-06-26T10:01:39;9.88;;;5.80;;
79130;SDS011;70394;45.194;9.142;2023-06-26T10:04:05;7.80;;;5.35;;
79130;SDS011;70394;45.194;9.142;2023-06-26T10:06:35;9.40;;;5.88;;
79130;SDS011;70394;45.194;9.142;2023-06-26T10:09:03;7.82;;;5.70;;
79130;SDS011;70394;45.194;9.142;2023-06-26T10:12:03;10.13;;;5.88;;
79130;SDS011;70394;45.194;9.142;2023-06-26T10:14:27;8.23;;;6.18;;
79130;SDS011;70394;45.194;9.142;2023-06-26T10:16:57;9.00;;;6.25;;
79130;SDS011;70394;45.194;9.142;2023-06-26T10:19:24;7.85;;;5.60;;
79130;SDS011;70394;45.194;9.142;2023-06-26T10:21:54;7.93;;;5.88;;
79130;SDS011;70394;45.194;9.142;2023-06-26T10:24:20;7.80;;;5.70;;
79130;SDS011;70394;45.194;9.142;2023-06-26T10:26:49;13.30;;;5.72;;
79130;SDS011;70394;45.194;9.142;2023-06-26T10:29:20;10.50;;;5.78;;
79130;SDS011;70394;45.194;9.142;2023-06-26T10:31:49;9.35;;;5.90;;
79130;SDS011;70394;45.194;9.142;2023-06-26T10:34:17;6.95;;;5.50;;
79130;SDS011;70394;45.194;9.142;2023-06-26T10:36:43;8.68;;;5.53;;
79130;SDS011;70394;45.194;9.142;2023-06-26T10:39:09;8.35;;;5.03;;
79130;SDS011;70394;45.194;9.142;2023-06-26T10:41:41;8.98;;;5.90;;
79130;SDS011;70394;45.194;9.142;2023-06-26T10:47:09;9.35;;;5.38;;
79130;SDS011;70394;45.194;9.142;2023-06-26T10:49:29;11.10;;;5.40;;
79130;SDS011;70394;45.194;9.142;2023-06-26T10:51:54;11.65;;;5.63;;
79130;SDS011;70394;45.194;9.142;2023-06-26T10:54:22;12.02;;;6.05;;
79130;SDS011;70394;45.194;9.142;2023-06-26T10:56:48;10.50;;;5.47;;
79130;SDS011;70394;45.194;9.142;2023-06-26T10:59:19;7.65;;;4.82;;
79130;SDS011;70394;45.194;9.142;2023-06-26T11:01:55;9.00;;;5.45;;
79130;SDS011;70394;45.194;9.142;2023-06-26T11:04:42;7.43;;;4.93;;
79130;SDS011;70394;45.194;9.142;2023-06-26T11:09:56;9.45;;;5.35;;
79130;SDS011;70394;45.194;9.142;2023-06-26T11:15:16;7.00;;;4.70;;
79130;SDS011;70394;45.194;9.142;2023-06-26T11:17:43;6.47;;;4.75;;
79130;SDS011;70394;45.194;9.142;2023-06-26T11:20:10;6.93;;;5.10;;
79130;SDS011;70394;45.194;9.142;2023-06-26T11:22:38;7.95;;;4.95;;
79130;SDS011;70394;45.194;9.142;2023-06-26T11:25:06;7.40;;;4.50;;
79130;SDS011;70394;45.194;9.142;2023-06-26T11:30:11;6.32;;;4.30;;
79130;SDS011;70394;45.194;9.142;2023-06-26T11:32:47;6.30;;;4.65;;
79130;SDS011;70394;45.194;9.142;2023-06-26T11:35:13;7.35;;;4.53;;
79130;SDS011;70394;45.194;9.142;2023-06-26T11:37:38;7.35;;;4.47;;
79130;SDS011;70394;45.194;9.142;2023-06-26T11:40:16;8.77;;;4.72;;
79130;SDS011;70394;45.194;9.142;2023-06-26T11:42:43;6.20;;;4.07;;
79130;SDS011;70394;45.194;9.142;2023-06-26T11:45:09;8.57;;;4.88;;
79130;SDS011;70394;45.194;9.142;2023-06-26T11:47:35;7.20;;;4.55;;
79130;SDS011;70394;45.194;9.142;2023-06-26T11:50:04;7.82;;;4.55;;
79130;SDS011;70394;45.194;9.142;2023-06-26T11:52:32;7.00;;;4.65;;
79130;SDS011;70394;45.194;9.142;2023-06-26T11:54:58;6.15;;;4.15;;
79130;SDS011;70394;45.194;9.142;2023-06-26T11:57:23;5.93;;;4.10;;
79130;SDS011;70394;45.194;9.142;2023-06-26T11:59:49;7.20;;;3.53;;
79130;SDS011;70394;45.194;9.142;2023-06-26T12:02:15;7.90;;;4.05;;
79130;SDS011;70394;45.194;9.142;2023-06-26T12:04:41;7.03;;;4.38;;
79130;SDS011;70394;45.194;9.142;2023-06-26T12:07:08;5.30;;;3.95;;
79130;SDS011;70394;45.194;9.142;2023-06-26T12:09:41;6.18;;;4.05;;
79130;SDS011;70394;45.194;9.142;2023-06-26T12:12:11;4.72;;;3.45;;
79130;SDS011;70394;45.194;9.142;2023-06-26T12:14:39;6.50;;;3.92;;
79130;SDS011;70394;45.194;9.142;2023-06-26T12:17:09;6.57;;;4.07;;
79130;SDS011;70394;45.194;9.142;2023-06-26T12:19:42;5.57;;;4.15;;
79130;SDS011;70394;45.194;9.142;2023-06-26T12:22:09;4.97;;;3.90;;
79130;SDS011;70394;45.194;9.142;2023-06-26T12:24:36;6.13;;;4.03;;
79130;SDS011;70394;45.194;9.142;2023-06-26T12:27:07;6.18;;;4.38;;
79130;SDS011;70394;45.194;9.142;2023-06-26T12:29:37;6.22;;;4.22;;
79130;SDS011;70394;45.194;9.142;2023-06-26T12:32:04;6.50;;;4.57;;
79130;SDS011;70394;45.194;9.142;2023-06-26T12:34:34;6.05;;;4.43;;
79130;SDS011;70394;45.194;9.142;2023-06-26T12:37:03;5.53;;;3.80;;
79130;SDS011;70394;45.194;9.142;2023-06-26T12:39:30;7.18;;;4.20;;
79130;SDS011;70394;45.194;9.142;2023-06-26T12:42:13;89.05;;;10.90;;
79130;SDS011;70394;45.194;9.142;2023-06-26T12:44:40;6.18;;;4.25;;
79130;SDS011;70394;45.194;9.142;2023-06-26T12:47:05;6.32;;;4.35;;
79130;SDS011;70394;45.194;9.142;2023-06-26T12:49:33;6.20;;;4.45;;
79130;SDS011;70394;45.194;9.142;2023-06-26T12:52:00;6.88;;;4.25;;
79130;SDS011;70394;45.194;9.142;2023-06-26T12:54:26;6.13;;;4.03;;
79130;SDS011;70394;45.194;9.142;2023-06-26T12:56:52;5.90;;;4.15;;
79130;SDS011;70394;45.194;9.142;2023-06-26T12:59:18;6.03;;;4.50;;
79130;SDS011;70394;45.194;9.142;2023-06-26T13:01:43;6.82;;;4.72;;
79130;SDS011;70394;45.194;9.142;2023-06-26T13:04:08;5.80;;;4.03;;
79130;SDS011;70394;45.194;9.142;2023-06-26T13:06:35;6.47;;;4.10;;
79130;SDS011;70394;45.194;9.142;2023-06-26T13:09:01;5.45;;;4.05;;
79130;SDS011;70394;45.194;9.142;2023-06-26T13:11:29;5.75;;;4.15;;
79130;SDS011;70394;45.194;9.142;2023-06-26T13:13:55;4.82;;;4.00;;
79130;SDS011;70394;45.194;9.142;2023-06-26T13:16:21;5.72;;;3.85;;
79130;SDS011;70394;45.194;9.142;2023-06-26T13:18:46;5.15;;;4.32;;
79130;SDS011;70394;45.194;9.142;2023-06-26T13:21:12;7.00;;;3.97;;
79130;SDS011;70394;45.194;9.142;2023-06-26T13:23:37;6.72;;;4.05;;
79130;SDS011;70394;45.194;9.142;2023-06-26T13:26:03;6.80;;;4.32;;
79130;SDS011;70394;45.194;9.142;2023-06-26T13:28:29;6.63;;;4.30;;
79130;SDS011;70394;45.194;9.142;2023-06-26T13:30:55;7.63;;;4.53;;
79130;SDS011;70394;45.194;9.142;2023-06-26T13:33:20;5.88;;;4.00;;
79130;SDS011;70394;45.194;9.142;2023-06-26T13:35:45;5.25;;;4.22;;
79130;SDS011;70394;45.194;9.142;2023-06-26T13:38:11;7.22;;;4.63;;
79130;SDS011;70394;45.194;9.142;2023-06-26T13:40:36;6.00;;;4.40;;
79130;SDS011;70394;45.194;9.142;2023-06-26T13:43:02;5.78;;;4.47;;
79130;SDS011;70394;45.194;9.142;2023-06-26T13:45:28;5.10;;;4.32;;
79130;SDS011;70394;45.194;9.142;2023-06-26T13:47:54;5.75;;;4.43;;
79130;SDS011;70394;45.194;9.142;2023-06-26T13:50:19;6.25;;;4.40;;
79130;SDS011;70394;45.194;9.142;2023-06-26T13:52:45;7.25;;;4.82;;
79130;SDS011;70394;45.194;9.142;2023-06-26T13:55:10;6.47;;;4.80;;
79130;SDS011;70394;45.194;9.142;2023-06-26T13:57:36;5.53;;;4.35;;
79130;SDS011;70394;45.194;9.142;2023-06-26T14:00:06;6.10;;;4.55;;
79130;SDS011;70394;45.194;9.142;2023-06-26T14:02:32;6.13;;;4.40;;
79130;SDS011;70394;45.194;9.142;2023-06-26T14:04:58;7.18;;;5.13;;
79130;SDS011;70394;45.194;9.142;2023-06-26T14:07:23;5.38;;;4.40;;
79130;SDS011;70394;45.194;9.142;2023-06-26T14:09:49;8.77;;;4.60;;
79130;SDS011;70394;45.194;9.142;2023-06-26T14:12:15;6.13;;;4.35;;
79130;SDS011;70394;45.194;9.142;2023-06-26T14:14:40;7.03;;;4.35;;
79130;SDS011;70394;45.194;9.142;2023-06-26T14:17:06;6.18;;;4.80;;
79130;SDS011;70394;45.194;9.142;2023-06-26T14:19:33;6.38;;;4.32;;
79130;SDS011;70394;45.194;9.142;2023-06-26T14:21:59;5.50;;;4.13;;
79130;SDS011;70394;45.194;9.142;2023-06-26T14:24:24;6.90;;;5.00;;
79130;SDS011;70394;45.194;9.142;2023-06-26T14:26:49;6.45;;;4.35;;
79130;SDS011;70394;45.194;9.142;2023-06-26T14:29:15;5.80;;;4.65;;
79130;SDS011;70394;45.194;9.142;2023-06-26T14:31:42;6.15;;;4.97;;
79130;SDS011;70394;45.194;9.142;2023-06-26T14:34:08;6.20;;;4.15;;
79130;SDS011;70394;45.194;9.142;2023-06-26T14:36:33;6.50;;;5.07;;
79130;SDS011;70394;45.194;9.142;2023-06-26T14:38:58;9.18;;;4.85;;
79130;SDS011;70394;45.194;9.142;2023-06-26T14:41:24;6.28;;;4.53;;
79130;SDS011;70394;45.194;9.142;2023-06-26T14:43:50;8.48;;;4.93;;
79130;SDS011;70394;45.194;9.142;2023-06-26T14:46:15;6.80;;;4.80;;
79130;SDS011;70394;45.194;9.142;2023-06-26T14:48:41;6.13;;;4.75;;
79130;SDS011;70394;45.194;9.142;2023-06-26T14:51:06;6.78;;;4.43;;
79130;SDS011;70394;45.194;9.142;2023-06-26T14:53:31;6.93;;;4.82;;
79130;SDS011;70394;45.194;9.142;2023-06-26T14:55:57;7.60;;;4.80;;
79130;SDS011;70394;45.194;9.142;2023-06-26T14:58:22;6.60;;;5.10;;
79130;SDS011;70394;45.194;9.142;2023-06-26T15:00:48;6.82;;;5.05;;
79130;SDS011;70394;45.194;9.142;2023-06-26T15:03:13;6.97;;;4.63;;
79130;SDS011;70394;45.194;9.142;2023-06-26T15:05:39;6.72;;;4.93;;